This demonstration page uses our WeatherBlox Daily Observations layout. Learn more.

Left ArrowRight Arrow

38.83388, -104.82136

Hourly Observations for December 4, 2022

Temp ( °F °C ) Dew Point ( °F °C ) Humidity (%) Winds ( mph kmh ) Pressure ( in mb ) Visibility ( mi km ) Precip ( " mm )
12:55 am 00:55 Mostly Cloudy 43 6.2 23 -4.9 45 45 SW 5 7 N/A 10 16 0.00 0.00
1:55 am 01:55 Mostly Cloudy 43 6.1 24 -4.7 46 46 SW 5 7 N/A 10 16 0.00 0.00
2:55 am 02:55 Mostly Cloudy 42 5.6 22 -5.4 45 45 SW 3 6 N/A 10 16 0.00 0.00
3:55 am 03:55 Cloudy 44 6.9 23 -5.1 42 42 SW 5 7 N/A 10 16 0.00 0.00
4:55 am 04:55 Clear 44 6.9 22 -5.5 41 41 S 5 7 N/A 10 16 0.00 0.00
5:55 am 05:55 Mostly Cloudy 44 6.4 22 -5.3 43 43 S 7 11 N/A 10 16 0.00 0.00
6:55 am 06:55 Clear 45 7 22 -5.7 40 40 S 13 20 N/A 10 16 0.00 0.00
7:55 am 07:55 Sunny 40 4.7 19 -7.1 42 42 S 20 31 N/A 10 16 0.00 0.00
8:55 am 08:55 Sunny 40 4.6 17 -8.2 39 39 S 21 33 N/A 10 16 0.00 0.00
9:55 am 09:55 Sunny 41 5.1 19 -7.4 40 40 S 16 26 N/A 10 16 0.00 0.00
10:55 am 10:55 Sunny 41 5.2 19 -7.3 40 40 S 13 20 N/A 10 16 0.00 0.00
11:55 am 11:55 Mostly Sunny 42 5.5 19 -7.4 39 39 S 20 31 N/A 10 16 0.00 0.00
12:55 pm 12:55 Sunny 43 6.2 19 -7.1 38 38 S 3 6 N/A 10 16 0.00 0.00
1:55 pm 13:55 Sunny 44 6.8 18 -7.6 35 35 S 14 22 N/A 10 16 0.00 0.00
2:55 pm 14:55 Sunny 43 6 19 -7.3 38 38 SSE 10 17 N/A 10 16 0.00 0.00
3:55 pm 15:55 Sunny 41 4.8 19 -7 42 42 SSE 7 11 N/A 10 16 0.00 0.00
4:55 pm 16:55 Clear 38 3.2 19 -7 47 47 SSE 8 13 N/A 10 16 0.00 0.00
5:55 pm 17:55 Clear 35 1.8 19 -7.3 51 51 SSE 6 9 N/A 10 16 0.00 0.00
6:55 pm 18:55 Clear 37 3 20 -6.9 48 48 SE 3 6 N/A 10 16 0.00 0.00
7:55 pm 19:55 Clear 37 2.5 20 -6.9 50 50 Calm N/A 10 16 0.00 0.00
8:55 pm 20:55 Clear 35 1.7 18 -7.9 49 49 N 5 7 N/A 10 16 0.00 0.00
9:55 pm 21:55 Clear 37 2.5 18 -8 46 46 NNW 8 13 N/A 10 16 0.00 0.00
10:55 pm 22:55 Clear 46 7.8 18 -7.9 32 32 SW 8 13 N/A 10 16 0.00 0.00
11:55 pm 23:55 Clear 46 7.9 17 -8.2 31 31 SSW 6 9 N/A 10 16 0.00 0.00

Powered by AerisWeather